Capitol Logistics 774


OKBK
Kuwait International Airport
Kuwait City, KW
EBLG
Liège Airport
Liege, BE

Route Details

Aircraft Information
Primary: Boeing 767-300BDSF
Backup: Not Available
Route Data
Distance: 2744nm
Sched. Duration: 6h 20m
Avg. Duration: 6h 15m (-5m)
Times Flown: 5
Recm'd Route: Not Available
Planned Altitude: 34,000ft
Origin Wx: OKBK 280100Z 17005KT 3000 BR NSC 09/07 Q1017 NOSIG
Dest. Wx: EBLG 280150Z 18008KT 4700 BR -DZ SCT003 BKN004 04/03 Q1009 TEMPO 2000 -DZ BKN005
Notes:

Financial History
Total Freight: 484,824lbs
Average Load: 96,965lbs/flt
Fuel Used: 350,087lbs
Avg. Fuel Used: 70,017lbs/flt
Fuel Expense: $119,030
Avg. Fuel Expense: $23,806
Avg. Fuel Cost: $0.34/lbs
Total Gross Income: $2,375,638
Pilot Pay: $1,105
Total Expenses: $256,829
Total Revenue: $1,992,599
Average Revenue: $475,127.52